sensor_id;sensor_type;location;lat;lon;timestamp;temperature;humidity
34989;DHT22;21192;40.182;44.516;2023-09-08T00:00:42;25.30;62.90
34989;DHT22;21192;40.182;44.516;2023-09-08T00:03:08;25.30;63.00
34989;DHT22;21192;40.182;44.516;2023-09-08T00:05:34;25.30;63.10
34989;DHT22;21192;40.182;44.516;2023-09-08T00:08:00;25.40;63.00
34989;DHT22;21192;40.182;44.516;2023-09-08T00:10:26;25.40;62.90
34989;DHT22;21192;40.182;44.516;2023-09-08T00:12:52;25.40;62.80
34989;DHT22;21192;40.182;44.516;2023-09-08T00:15:18;25.50;62.70
34989;DHT22;21192;40.182;44.516;2023-09-08T00:17:43;25.50;62.60
34989;DHT22;21192;40.182;44.516;2023-09-08T00:20:10;25.50;62.50
34989;DHT22;21192;40.182;44.516;2023-09-08T00:25:22;25.50;63.10
34989;DHT22;21192;40.182;44.516;2023-09-08T00:27:48;25.50;62.30
34989;DHT22;21192;40.182;44.516;2023-09-08T00:30:13;25.60;62.30
34989;DHT22;21192;40.182;44.516;2023-09-08T00:32:40;25.60;62.30
34989;DHT22;21192;40.182;44.516;2023-09-08T00:35:06;25.50;62.40
34989;DHT22;21192;40.182;44.516;2023-09-08T00:37:33;25.40;62.20
34989;DHT22;21192;40.182;44.516;2023-09-08T00:39:59;25.40;61.80
34989;DHT22;21192;40.182;44.516;2023-09-08T00:42:25;25.50;61.60
34989;DHT22;21192;40.182;44.516;2023-09-08T00:44:50;25.60;61.20
34989;DHT22;21192;40.182;44.516;2023-09-08T00:47:16;25.60;60.80
34989;DHT22;21192;40.182;44.516;2023-09-08T00:49:43;25.70;60.60
34989;DHT22;21192;40.182;44.516;2023-09-08T00:52:08;25.80;60.30
34989;DHT22;21192;40.182;44.516;2023-09-08T00:54:34;25.80;60.00
34989;DHT22;21192;40.182;44.516;2023-09-08T00:57:02;25.80;60.00
34989;DHT22;21192;40.182;44.516;2023-09-08T00:59:32;25.80;60.00
34989;DHT22;21192;40.182;44.516;2023-09-08T01:01:59;25.80;60.00
34989;DHT22;21192;40.182;44.516;2023-09-08T01:04:25;25.80;59.90
34989;DHT22;21192;40.182;44.516;2023-09-08T01:06:51;25.80;59.90
34989;DHT22;21192;40.182;44.516;2023-09-08T01:09:17;25.80;60.00
34989;DHT22;21192;40.182;44.516;2023-09-08T01:11:44;25.80;60.00
34989;DHT22;21192;40.182;44.516;2023-09-08T01:14:12;25.80;59.90
34989;DHT22;21192;40.182;44.516;2023-09-08T01:16:39;25.90;59.90
34989;DHT22;21192;40.182;44.516;2023-09-08T01:19:11;25.90;59.90
34989;DHT22;21192;40.182;44.516;2023-09-08T01:27:32;25.80;59.90
34989;DHT22;21192;40.182;44.516;2023-09-08T01:30:00;25.80;60.00
34989;DHT22;21192;40.182;44.516;2023-09-08T01:32:28;25.80;60.10
34989;DHT22;21192;40.182;44.516;2023-09-08T01:34:56;25.80;60.30
34989;DHT22;21192;40.182;44.516;2023-09-08T01:37:23;25.70;60.80
34989;DHT22;21192;40.182;44.516;2023-09-08T01:39:49;25.40;61.90
34989;DHT22;21192;40.182;44.516;2023-09-08T01:42:15;25.30;62.50
34989;DHT22;21192;40.182;44.516;2023-09-08T01:44:41;25.10;63.10
34989;DHT22;21192;40.182;44.516;2023-09-08T01:47:06;25.00;63.30
34989;DHT22;21192;40.182;44.516;2023-09-08T01:49:32;25.00;63.60
34989;DHT22;21192;40.182;44.516;2023-09-08T01:51:58;25.00;63.80
34989;DHT22;21192;40.182;44.516;2023-09-08T01:54:24;24.90;64.00
34989;DHT22;21192;40.182;44.516;2023-09-08T01:56:50;25.00;64.20
34989;DHT22;21192;40.182;44.516;2023-09-08T01:59:17;24.90;64.30
34989;DHT22;21192;40.182;44.516;2023-09-08T02:01:43;24.90;64.40
34989;DHT22;21192;40.182;44.516;2023-09-08T02:04:08;24.90;64.50
34989;DHT22;21192;40.182;44.516;2023-09-08T02:06:34;24.90;64.50
34989;DHT22;21192;40.182;44.516;2023-09-08T02:09:00;24.90;64.40
34989;DHT22;21192;40.182;44.516;2023-09-08T02:11:26;24.90;64.50
34989;DHT22;21192;40.182;44.516;2023-09-08T02:13:52;24.90;64.50
34989;DHT22;21192;40.182;44.516;2023-09-08T02:16:18;24.90;64.40
34989;DHT22;21192;40.182;44.516;2023-09-08T02:18:44;24.90;64.50
34989;DHT22;21192;40.182;44.516;2023-09-08T02:21:11;24.80;64.60
34989;DHT22;21192;40.182;44.516;2023-09-08T02:23:37;24.70;64.60
34989;DHT22;21192;40.182;44.516;2023-09-08T02:26:03;24.70;64.60
34989;DHT22;21192;40.182;44.516;2023-09-08T02:28:29;24.70;64.50
34989;DHT22;21192;40.182;44.516;2023-09-08T02:30:55;24.80;64.60
34989;DHT22;21192;40.182;44.516;2023-09-08T02:33:21;24.80;64.70
34989;DHT22;21192;40.182;44.516;2023-09-08T02:35:46;24.70;64.80
34989;DHT22;21192;40.182;44.516;2023-09-08T02:38:12;24.70;64.90
34989;DHT22;21192;40.182;44.516;2023-09-08T02:40:38;24.70;64.80
34989;DHT22;21192;40.182;44.516;2023-09-08T02:43:04;24.70;64.70
34989;DHT22;21192;40.182;44.516;2023-09-08T02:45:30;24.80;64.50
34989;DHT22;21192;40.182;44.516;2023-09-08T02:47:56;24.90;64.30
34989;DHT22;21192;40.182;44.516;2023-09-08T02:50:22;25.00;64.10
34989;DHT22;21192;40.182;44.516;2023-09-08T02:52:48;25.10;63.70
34989;DHT22;21192;40.182;44.516;2023-09-08T02:55:14;25.20;63.30
34989;DHT22;21192;40.182;44.516;2023-09-08T02:57:40;25.30;62.90
34989;DHT22;21192;40.182;44.516;2023-09-08T03:00:06;25.40;62.60
34989;DHT22;21192;40.182;44.516;2023-09-08T03:02:33;25.50;62.40
34989;DHT22;21192;40.182;44.516;2023-09-08T03:04:59;25.70;62.10
34989;DHT22;21192;40.182;44.516;2023-09-08T03:07:26;25.90;61.70
34989;DHT22;21192;40.182;44.516;2023-09-08T03:09:52;26.50;61.00
34989;DHT22;21192;40.182;44.516;2023-09-08T03:12:18;27.30;59.90
34989;DHT22;21192;40.182;44.516;2023-09-08T03:14:44;28.10;58.50
34989;DHT22;21192;40.182;44.516;2023-09-08T03:17:13;28.90;57.20
34989;DHT22;21192;40.182;44.516;2023-09-08T03:19:39;29.70;55.90
34989;DHT22;21192;40.182;44.516;2023-09-08T03:22:05;30.50;54.40
34989;DHT22;21192;40.182;44.516;2023-09-08T03:24:31;31.40;53.10
34989;DHT22;21192;40.182;44.516;2023-09-08T03:26:57;32.10;51.80
34989;DHT22;21192;40.182;44.516;2023-09-08T03:29:23;32.90;50.50
34989;DHT22;21192;40.182;44.516;2023-09-08T03:31:49;33.70;49.10
34989;DHT22;21192;40.182;44.516;2023-09-08T03:34:15;34.50;47.70
34989;DHT22;21192;40.182;44.516;2023-09-08T03:36:41;35.30;46.50
34989;DHT22;21192;40.182;44.516;2023-09-08T03:39:06;36.00;45.50
34989;DHT22;21192;40.182;44.516;2023-09-08T03:41:35;36.70;44.40
34989;DHT22;21192;40.182;44.516;2023-09-08T03:44:00;37.20;43.40
34989;DHT22;21192;40.182;44.516;2023-09-08T03:46:26;37.90;42.60
34989;DHT22;21192;40.182;44.516;2023-09-08T03:48:52;38.40;41.70
34989;DHT22;21192;40.182;44.516;2023-09-08T03:51:24;38.90;41.10
34989;DHT22;21192;40.182;44.516;2023-09-08T03:53:50;39.60;40.20
34989;DHT22;21192;40.182;44.516;2023-09-08T03:56:16;40.20;39.50
34989;DHT22;21192;40.182;44.516;2023-09-08T03:58:42;40.70;38.70
34989;DHT22;21192;40.182;44.516;2023-09-08T04:01:08;40.80;38.30
34989;DHT22;21192;40.182;44.516;2023-09-08T04:03:34;40.80;38.20
34989;DHT22;21192;40.182;44.516;2023-09-08T04:05:59;41.00;37.90
34989;DHT22;21192;40.182;44.516;2023-09-08T04:08:25;41.20;37.50
34989;DHT22;21192;40.182;44.516;2023-09-08T04:10:51;41.80;37.10
34989;DHT22;21192;40.182;44.516;2023-09-08T04:13:17;42.40;36.30
34989;DHT22;21192;40.182;44.516;2023-09-08T04:15:42;42.80;35.80
34989;DHT22;21192;40.182;44.516;2023-09-08T04:18:08;43.20;35.40
34989;DHT22;21192;40.182;44.516;2023-09-08T04:20:34;44.00;34.60
34989;DHT22;21192;40.182;44.516;2023-09-08T04:23:00;44.60;34.00
34989;DHT22;21192;40.182;44.516;2023-09-08T04:25:26;45.10;33.40
34989;DHT22;21192;40.182;44.516;2023-09-08T04:27:52;45.80;32.90
34989;DHT22;21192;40.182;44.516;2023-09-08T04:30:17;46.30;32.40
34989;DHT22;21192;40.182;44.516;2023-09-08T04:32:44;46.80;32.00
34989;DHT22;21192;40.182;44.516;2023-09-08T04:35:10;47.10;31.60
34989;DHT22;21192;40.182;44.516;2023-09-08T04:37:35;47.50;31.30
34989;DHT22;21192;40.182;44.516;2023-09-08T04:40:03;47.90;30.80
34989;DHT22;21192;40.182;44.516;2023-09-08T04:42:29;48.30;30.50
34989;DHT22;21192;40.182;44.516;2023-09-08T04:44:55;48.60;30.90
34989;DHT22;21192;40.182;44.516;2023-09-08T04:47:21;48.20;30.20
34989;DHT22;21192;40.182;44.516;2023-09-08T04:49:46;46.60;30.80
34989;DHT22;21192;40.182;44.516;2023-09-08T04:52:12;45.90;31.90
34989;DHT22;21192;40.182;44.516;2023-09-08T04:54:39;45.10;32.00
34989;DHT22;21192;40.182;44.516;2023-09-08T04:57:05;44.20;32.90
34989;DHT22;21192;40.182;44.516;2023-09-08T04:59:31;45.00;32.70
34989;DHT22;21192;40.182;44.516;2023-09-08T05:01:58;45.80;32.10
34989;DHT22;21192;40.182;44.516;2023-09-08T05:04:24;46.60;31.60
34989;DHT22;21192;40.182;44.516;2023-09-08T05:06:50;47.20;31.00
34989;DHT22;21192;40.182;44.516;2023-09-08T05:09:16;47.80;30.50
34989;DHT22;21192;40.182;44.516;2023-09-08T05:11:41;48.00;30.00
34989;DHT22;21192;40.182;44.516;2023-09-08T05:14:07;48.40;29.80
34989;DHT22;21192;40.182;44.516;2023-09-08T05:16:33;49.10;29.50
34989;DHT22;21192;40.182;44.516;2023-09-08T05:19:03;49.60;29.10
34989;DHT22;21192;40.182;44.516;2023-09-08T05:21:31;49.70;28.80
34989;DHT22;21192;40.182;44.516;2023-09-08T05:23:57;49.80;28.70
34989;DHT22;21192;40.182;44.516;2023-09-08T05:26:23;49.70;28.90
34989;DHT22;21192;40.182;44.516;2023-09-08T05:28:48;49.70;28.90
34989;DHT22;21192;40.182;44.516;2023-09-08T05:31:14;49.10;28.90
34989;DHT22;21192;40.182;44.516;2023-09-08T05:33:40;48.90;29.20
34989;DHT22;21192;40.182;44.516;2023-09-08T05:36:06;48.90;29.80
34989;DHT22;21192;40.182;44.516;2023-09-08T05:38:32;47.60;29.50
34989;DHT22;21192;40.182;44.516;2023-09-08T05:40:57;46.20;30.40
34989;DHT22;21192;40.182;44.516;2023-09-08T05:43:25;44.60;31.70
34989;DHT22;21192;40.182;44.516;2023-09-08T05:45:51;43.40;32.80
34989;DHT22;21192;40.182;44.516;2023-09-08T05:48:17;42.20;33.90
34989;DHT22;21192;40.182;44.516;2023-09-08T05:50:43;41.00;35.00
34989;DHT22;21192;40.182;44.516;2023-09-08T05:53:08;40.00;36.10
34989;DHT22;21192;40.182;44.516;2023-09-08T05:55:34;39.30;37.00
34989;DHT22;21192;40.182;44.516;2023-09-08T05:58:00;38.50;38.00
34989;DHT22;21192;40.182;44.516;2023-09-08T06:00:26;37.60;39.60
34989;DHT22;21192;40.182;44.516;2023-09-08T06:02:52;36.90;39.80
34989;DHT22;21192;40.182;44.516;2023-09-08T06:05:18;36.20;40.60
34989;DHT22;21192;40.182;44.516;2023-09-08T06:07:44;35.70;41.40
34989;DHT22;21192;40.182;44.516;2023-09-08T06:10:09;35.30;42.10
34989;DHT22;21192;40.182;44.516;2023-09-08T06:12:35;34.90;42.50
34989;DHT22;21192;40.182;44.516;2023-09-08T06:15:03;34.70;43.00
34989;DHT22;21192;40.182;44.516;2023-09-08T06:17:29;34.40;43.30
34989;DHT22;21192;40.182;44.516;2023-09-08T06:19:54;34.10;43.80
34989;DHT22;21192;40.182;44.516;2023-09-08T06:22:20;33.80;44.30
34989;DHT22;21192;40.182;44.516;2023-09-08T06:24:46;33.60;44.80
34989;DHT22;21192;40.182;44.516;2023-09-08T06:27:14;33.60;44.90
34989;DHT22;21192;40.182;44.516;2023-09-08T06:29:40;33.50;45.10
34989;DHT22;21192;40.182;44.516;2023-09-08T06:32:09;33.50;45.10
34989;DHT22;21192;40.182;44.516;2023-09-08T06:34:35;33.50;45.30
34989;DHT22;21192;40.182;44.516;2023-09-08T06:37:01;33.30;45.50
34989;DHT22;21192;40.182;44.516;2023-09-08T06:39:28;33.20;45.70
34989;DHT22;21192;40.182;44.516;2023-09-08T06:41:54;33.10;45.80
34989;DHT22;21192;40.182;44.516;2023-09-08T06:44:23;33.20;45.90
34989;DHT22;21192;40.182;44.516;2023-09-08T06:46:49;33.10;46.80
34989;DHT22;21192;40.182;44.516;2023-09-08T06:49:14;32.80;47.70
34989;DHT22;21192;40.182;44.516;2023-09-08T06:51:40;32.70;48.30
34989;DHT22;21192;40.182;44.516;2023-09-08T06:54:06;32.70;48.50
34989;DHT22;21192;40.182;44.516;2023-09-08T06:56:32;32.70;48.50
34989;DHT22;21192;40.182;44.516;2023-09-08T06:58:58;32.60;48.80
34989;DHT22;21192;40.182;44.516;2023-09-08T07:01:24;32.50;49.20
34989;DHT22;21192;40.182;44.516;2023-09-08T07:03:50;32.50;49.20
34989;DHT22;21192;40.182;44.516;2023-09-08T07:06:16;32.50;49.50
34989;DHT22;21192;40.182;44.516;2023-09-08T07:08:42;32.50;49.10
34989;DHT22;21192;40.182;44.516;2023-09-08T07:11:08;32.50;49.00
34989;DHT22;21192;40.182;44.516;2023-09-08T07:13:34;32.50;49.20
34989;DHT22;21192;40.182;44.516;2023-09-08T07:16:00;32.50;49.40
34989;DHT22;21192;40.182;44.516;2023-09-08T07:18:26;32.50;49.30
34989;DHT22;21192;40.182;44.516;2023-09-08T07:20:51;32.20;48.90
34989;DHT22;21192;40.182;44.516;2023-09-08T07:23:18;32.10;48.70
34989;DHT22;21192;40.182;44.516;2023-09-08T07:25:50;32.00;48.80
34989;DHT22;21192;40.182;44.516;2023-09-08T07:28:16;32.00;48.50
34989;DHT22;21192;40.182;44.516;2023-09-08T07:30:43;32.10;48.50
34989;DHT22;21192;40.182;44.516;2023-09-08T07:33:09;32.10;48.40
34989;DHT22;21192;40.182;44.516;2023-09-08T07:35:41;32.10;48.40
34989;DHT22;21192;40.182;44.516;2023-09-08T07:38:06;32.10;48.30
34989;DHT22;21192;40.182;44.516;2023-09-08T07:40:35;32.00;49.10
34989;DHT22;21192;40.182;44.516;2023-09-08T07:43:01;31.80;48.70
34989;DHT22;21192;40.182;44.516;2023-09-08T07:45:28;31.60;48.90
34989;DHT22;21192;40.182;44.516;2023-09-08T07:47:54;31.60;49.10
34989;DHT22;21192;40.182;44.516;2023-09-08T07:50:27;31.60;49.90
34989;DHT22;21192;40.182;44.516;2023-09-08T07:52:55;31.40;49.30
34989;DHT22;21192;40.182;44.516;2023-09-08T07:55:21;31.40;49.50
34989;DHT22;21192;40.182;44.516;2023-09-08T07:57:55;31.30;49.80
34989;DHT22;21192;40.182;44.516;2023-09-08T08:00:21;31.30;49.90
34989;DHT22;21192;40.182;44.516;2023-09-08T08:02:48;31.10;50.00
34989;DHT22;21192;40.182;44.516;2023-09-08T08:05:15;31.00;50.20
34989;DHT22;21192;40.182;44.516;2023-09-08T08:07:42;30.90;50.30
34989;DHT22;21192;40.182;44.516;2023-09-08T08:10:09;30.80;50.70
34989;DHT22;21192;40.182;44.516;2023-09-08T08:12:35;30.70;51.20
34989;DHT22;21192;40.182;44.516;2023-09-08T08:15:01;30.70;51.40
34989;DHT22;21192;40.182;44.516;2023-09-08T08:17:27;30.70;51.20
34989;DHT22;21192;40.182;44.516;2023-09-08T08:19:55;30.60;51.20
34989;DHT22;21192;40.182;44.516;2023-09-08T08:22:21;30.50;51.20
34989;DHT22;21192;40.182;44.516;2023-09-08T08:24:47;30.50;51.30
34989;DHT22;21192;40.182;44.516;2023-09-08T08:27:13;30.50;51.40
34989;DHT22;21192;40.182;44.516;2023-09-08T08:29:39;30.50;51.60
34989;DHT22;21192;40.182;44.516;2023-09-08T08:32:05;30.50;52.00
34989;DHT22;21192;40.182;44.516;2023-09-08T08:34:31;30.40;52.30
34989;DHT22;21192;40.182;44.516;2023-09-08T08:36:57;30.40;52.30
34989;DHT22;21192;40.182;44.516;2023-09-08T08:39:23;30.50;52.10
34989;DHT22;21192;40.182;44.516;2023-09-08T08:41:49;30.50;52.10
34989;DHT22;21192;40.182;44.516;2023-09-08T08:44:15;30.60;52.00
34989;DHT22;21192;40.182;44.516;2023-09-08T08:46:43;30.50;51.30
34989;DHT22;21192;40.182;44.516;2023-09-08T08:49:11;30.50;51.20
34989;DHT22;21192;40.182;44.516;2023-09-08T08:51:38;30.50;51.10
34989;DHT22;21192;40.182;44.516;2023-09-08T08:54:04;30.50;51.20
34989;DHT22;21192;40.182;44.516;2023-09-08T08:56:31;30.50;51.20
34989;DHT22;21192;40.182;44.516;2023-09-08T08:58:58;30.50;51.20
34989;DHT22;21192;40.182;44.516;2023-09-08T09:01:26;30.50;51.10
34989;DHT22;21192;40.182;44.516;2023-09-08T09:03:54;30.60;50.80
34989;DHT22;21192;40.182;44.516;2023-09-08T09:06:20;30.60;50.10
34989;DHT22;21192;40.182;44.516;2023-09-08T09:08:46;30.60;51.00
34989;DHT22;21192;40.182;44.516;2023-09-08T09:11:12;30.50;50.20
34989;DHT22;21192;40.182;44.516;2023-09-08T09:13:38;30.50;50.50
34989;DHT22;21192;40.182;44.516;2023-09-08T09:16:05;30.50;50.60
34989;DHT22;21192;40.182;44.516;2023-09-08T09:21:18;30.50;49.90
34989;DHT22;21192;40.182;44.516;2023-09-08T09:23:44;30.50;50.00
34989;DHT22;21192;40.182;44.516;2023-09-08T09:26:26;30.50;50.20
34989;DHT22;21192;40.182;44.516;2023-09-08T09:28:52;30.50;50.50
34989;DHT22;21192;40.182;44.516;2023-09-08T09:31:23;30.60;50.50
34989;DHT22;21192;40.182;44.516;2023-09-08T09:34:01;30.50;50.20
34989;DHT22;21192;40.182;44.516;2023-09-08T09:36:29;30.50;50.30
34989;DHT22;21192;40.182;44.516;2023-09-08T09:39:00;30.50;50.30
34989;DHT22;21192;40.182;44.516;2023-09-08T09:41:28;30.60;50.40
34989;DHT22;21192;40.182;44.516;2023-09-08T09:43:58;30.60;50.30
34989;DHT22;21192;40.182;44.516;2023-09-08T09:46:28;30.60;50.50
34989;DHT22;21192;40.182;44.516;2023-09-08T09:48:57;30.60;50.70
34989;DHT22;21192;40.182;44.516;2023-09-08T09:51:24;30.50;50.90
34989;DHT22;21192;40.182;44.516;2023-09-08T09:53:50;30.40;51.10
34989;DHT22;21192;40.182;44.516;2023-09-08T09:56:20;30.40;51.20
34989;DHT22;21192;40.182;44.516;2023-09-08T09:58:48;30.40;51.00
34989;DHT22;21192;40.182;44.516;2023-09-08T10:01:15;30.50;51.10
34989;DHT22;21192;40.182;44.516;2023-09-08T10:03:42;30.50;50.70
34989;DHT22;21192;40.182;44.516;2023-09-08T10:06:09;30.40;50.60
34989;DHT22;21192;40.182;44.516;2023-09-08T10:08:35;30.40;50.80
34989;DHT22;21192;40.182;44.516;2023-09-08T10:11:07;30.50;51.00
34989;DHT22;21192;40.182;44.516;2023-09-08T10:13:39;30.60;51.00
34989;DHT22;21192;40.182;44.516;2023-09-08T10:16:08;30.60;50.90
34989;DHT22;21192;40.182;44.516;2023-09-08T10:18:35;30.70;50.80
34989;DHT22;21192;40.182;44.516;2023-09-08T10:21:04;30.70;50.70
34989;DHT22;21192;40.182;44.516;2023-09-08T10:23:40;30.70;50.50
34989;DHT22;21192;40.182;44.516;2023-09-08T10:26:10;30.70;50.40
34989;DHT22;21192;40.182;44.516;2023-09-08T10:28:37;30.80;50.50
34989;DHT22;21192;40.182;44.516;2023-09-08T10:31:04;30.90;50.50
34989;DHT22;21192;40.182;44.516;2023-09-08T10:33:31;31.00;50.30
34989;DHT22;21192;40.182;44.516;2023-09-08T10:35:58;31.00;50.20
34989;DHT22;21192;40.182;44.516;2023-09-08T10:38:31;31.00;49.90
34989;DHT22;21192;40.182;44.516;2023-09-08T10:43:57;31.00;49.70
34989;DHT22;21192;40.182;44.516;2023-09-08T10:46:25;31.00;49.30
34989;DHT22;21192;40.182;44.516;2023-09-08T10:49:00;31.00;49.10
34989;DHT22;21192;40.182;44.516;2023-09-08T10:51:27;31.00;48.70
34989;DHT22;21192;40.182;44.516;2023-09-08T10:53:53;30.90;48.50
34989;DHT22;21192;40.182;44.516;2023-09-08T10:56:19;30.90;48.70
34989;DHT22;21192;40.182;44.516;2023-09-08T10:58:50;30.90;48.80
34989;DHT22;21192;40.182;44.516;2023-09-08T11:01:17;30.90;48.90
34989;DHT22;21192;40.182;44.516;2023-09-08T11:03:45;31.00;48.80
34989;DHT22;21192;40.182;44.516;2023-09-08T11:06:15;31.00;49.00
34989;DHT22;21192;40.182;44.516;2023-09-08T11:08:43;31.10;48.70
34989;DHT22;21192;40.182;44.516;2023-09-08T11:11:13;31.10;48.40
34989;DHT22;21192;40.182;44.516;2023-09-08T11:13:39;31.10;48.10
34989;DHT22;21192;40.182;44.516;2023-09-08T11:16:06;31.20;48.10
34989;DHT22;21192;40.182;44.516;2023-09-08T11:18:33;31.20;48.00
34989;DHT22;21192;40.182;44.516;2023-09-08T11:21:01;31.20;47.90
34989;DHT22;21192;40.182;44.516;2023-09-08T11:23:27;31.20;48.20
34989;DHT22;21192;40.182;44.516;2023-09-08T11:25:54;31.20;48.00
34989;DHT22;21192;40.182;44.516;2023-09-08T11:28:23;31.20;47.60
34989;DHT22;21192;40.182;44.516;2023-09-08T11:30:50;31.20;47.40
34989;DHT22;21192;40.182;44.516;2023-09-08T11:33:17;31.30;47.50
34989;DHT22;21192;40.182;44.516;2023-09-08T11:35:45;31.40;47.40
34989;DHT22;21192;40.182;44.516;2023-09-08T11:38:12;31.40;47.10
34989;DHT22;21192;40.182;44.516;2023-09-08T11:40:38;31.40;47.00
34989;DHT22;21192;40.182;44.516;2023-09-08T11:43:05;31.50;47.10
34989;DHT22;21192;40.182;44.516;2023-09-08T11:45:37;31.60;46.90
34989;DHT22;21192;40.182;44.516;2023-09-08T11:48:04;31.50;46.30
34989;DHT22;21192;40.182;44.516;2023-09-08T11:50:31;31.50;46.30
34989;DHT22;21192;40.182;44.516;2023-09-08T11:52:57;31.50;46.30
34989;DHT22;21192;40.182;44.516;2023-09-08T11:55:28;31.50;45.70
34989;DHT22;21192;40.182;44.516;2023-09-08T11:57:55;31.50;45.20
34989;DHT22;21192;40.182;44.516;2023-09-08T12:00:24;31.50;45.80
34989;DHT22;21192;40.182;44.516;2023-09-08T12:02:51;31.50;45.30
34989;DHT22;21192;40.182;44.516;2023-09-08T12:05:22;31.50;45.90
34989;DHT22;21192;40.182;44.516;2023-09-08T12:07:53;31.50;46.70
34989;DHT22;21192;40.182;44.516;2023-09-08T12:10:19;31.50;46.80
34989;DHT22;21192;40.182;44.516;2023-09-08T12:12:50;31.50;46.80
34989;DHT22;21192;40.182;44.516;2023-09-08T12:15:37;31.50;47.00
34989;DHT22;21192;40.182;44.516;2023-09-08T12:18:08;31.50;47.20
34989;DHT22;21192;40.182;44.516;2023-09-08T12:20:35;31.60;47.50
34989;DHT22;21192;40.182;44.516;2023-09-08T12:23:18;31.60;47.20
34989;DHT22;21192;40.182;44.516;2023-09-08T12:25:49;31.70;47.10
34989;DHT22;21192;40.182;44.516;2023-09-08T12:28:16;31.80;47.10
34989;DHT22;21192;40.182;44.516;2023-09-08T12:30:43;31.80;47.00
34989;DHT22;21192;40.182;44.516;2023-09-08T12:33:09;31.80;47.00
34989;DHT22;21192;40.182;44.516;2023-09-08T12:35:43;31.80;47.00
34989;DHT22;21192;40.182;44.516;2023-09-08T12:38:10;31.70;47.10
34989;DHT22;21192;40.182;44.516;2023-09-08T12:40:37;31.70;47.30
34989;DHT22;21192;40.182;44.516;2023-09-08T12:43:03;31.60;47.10
34989;DHT22;21192;40.182;44.516;2023-09-08T12:45:29;31.50;47.20
34989;DHT22;21192;40.182;44.516;2023-09-08T12:47:59;31.50;47.20
34989;DHT22;21192;40.182;44.516;2023-09-08T12:50:27;31.50;47.40
34989;DHT22;21192;40.182;44.516;2023-09-08T12:52:52;31.50;47.80
34989;DHT22;21192;40.182;44.516;2023-09-08T12:55:19;31.40;47.90
34989;DHT22;21192;40.182;44.516;2023-09-08T12:57:45;31.40;47.80
34989;DHT22;21192;40.182;44.516;2023-09-08T13:00:13;31.30;47.80
34989;DHT22;21192;40.182;44.516;2023-09-08T13:02:40;31.30;47.80
34989;DHT22;21192;40.182;44.516;2023-09-08T13:05:07;31.30;47.90
34989;DHT22;21192;40.182;44.516;2023-09-08T13:07:33;31.30;48.00
34989;DHT22;21192;40.182;44.516;2023-09-08T13:09:59;31.30;47.80
34989;DHT22;21192;40.182;44.516;2023-09-08T13:12:25;31.30;47.70
34989;DHT22;21192;40.182;44.516;2023-09-08T13:14:51;31.30;47.60
34989;DHT22;21192;40.182;44.516;2023-09-08T13:17:17;31.40;47.50
34989;DHT22;21192;40.182;44.516;2023-09-08T13:19:44;31.40;47.20
34989;DHT22;21192;40.182;44.516;2023-09-08T13:22:10;31.30;47.00
34989;DHT22;21192;40.182;44.516;2023-09-08T13:24:36;31.30;47.20
34989;DHT22;21192;40.182;44.516;2023-09-08T13:27:03;31.30;47.20
34989;DHT22;21192;40.182;44.516;2023-09-08T13:29:29;31.30;47.40
34989;DHT22;21192;40.182;44.516;2023-09-08T13:31:55;31.20;47.40
34989;DHT22;21192;40.182;44.516;2023-09-08T13:34:24;31.30;47.30
34989;DHT22;21192;40.182;44.516;2023-09-08T13:36:50;31.30;47.20
34989;DHT22;21192;40.182;44.516;2023-09-08T13:39:16;31.30;47.30
34989;DHT22;21192;40.182;44.516;2023-09-08T13:41:51;31.30;47.60
34989;DHT22;21192;40.182;44.516;2023-09-08T13:44:21;31.30;47.80
34989;DHT22;21192;40.182;44.516;2023-09-08T13:46:51;31.40;48.00
34989;DHT22;21192;40.182;44.516;2023-09-08T13:49:18;31.40;48.20
34989;DHT22;21192;40.182;44.516;2023-09-08T13:51:44;31.40;48.50
34989;DHT22;21192;40.182;44.516;2023-09-08T13:54:13;31.50;48.70
34989;DHT22;21192;40.182;44.516;2023-09-08T13:56:40;31.50;48.80
34989;DHT22;21192;40.182;44.516;2023-09-08T13:59:06;31.50;48.90
34989;DHT22;21192;40.182;44.516;2023-09-08T14:01:36;31.50;49.00
34989;DHT22;21192;40.182;44.516;2023-09-08T14:04:03;31.50;49.00
34989;DHT22;21192;40.182;44.516;2023-09-08T14:06:31;31.40;48.80
34989;DHT22;21192;40.182;44.516;2023-09-08T14:08:58;31.40;48.70
34989;DHT22;21192;40.182;44.516;2023-09-08T14:11:24;31.40;48.50
34989;DHT22;21192;40.182;44.516;2023-09-08T14:13:50;31.30;48.20
34989;DHT22;21192;40.182;44.516;2023-09-08T14:16:18;31.30;48.10
34989;DHT22;21192;40.182;44.516;2023-09-08T14:18:45;31.20;48.80
34989;DHT22;21192;40.182;44.516;2023-09-08T14:21:11;31.10;49.70
34989;DHT22;21192;40.182;44.516;2023-09-08T14:23:36;31.00;50.10
34989;DHT22;21192;40.182;44.516;2023-09-08T14:26:06;31.00;50.30
34989;DHT22;21192;40.182;44.516;2023-09-08T14:28:32;30.90;50.60
34989;DHT22;21192;40.182;44.516;2023-09-08T14:30:59;30.90;50.90
34989;DHT22;21192;40.182;44.516;2023-09-08T14:33:25;30.70;51.00
34989;DHT22;21192;40.182;44.516;2023-09-08T14:35:51;30.70;51.70
34989;DHT22;21192;40.182;44.516;2023-09-08T14:38:20;30.50;52.70
34989;DHT22;21192;40.182;44.516;2023-09-08T14:40:54;30.30;53.40
34989;DHT22;21192;40.182;44.516;2023-09-08T14:43:21;30.10;53.80
34989;DHT22;21192;40.182;44.516;2023-09-08T14:45:47;29.90;54.00
34989;DHT22;21192;40.182;44.516;2023-09-08T14:48:12;29.70;54.30
34989;DHT22;21192;40.182;44.516;2023-09-08T14:50:38;29.50;54.60
34989;DHT22;21192;40.182;44.516;2023-09-08T14:53:04;29.40;54.70
34989;DHT22;21192;40.182;44.516;2023-09-08T14:55:32;29.20;55.10
34989;DHT22;21192;40.182;44.516;2023-09-08T14:57:58;29.00;55.50
34989;DHT22;21192;40.182;44.516;2023-09-08T15:00:24;28.70;56.00
34989;DHT22;21192;40.182;44.516;2023-09-08T15:02:50;28.50;56.30
34989;DHT22;21192;40.182;44.516;2023-09-08T15:05:15;28.40;56.70
34989;DHT22;21192;40.182;44.516;2023-09-08T15:07:41;28.20;57.20
34989;DHT22;21192;40.182;44.516;2023-09-08T15:10:07;28.10;57.60
34989;DHT22;21192;40.182;44.516;2023-09-08T15:12:33;28.00;58.10
34989;DHT22;21192;40.182;44.516;2023-09-08T15:14:59;27.90;58.00
34989;DHT22;21192;40.182;44.516;2023-09-08T15:17:25;27.80;58.00
34989;DHT22;21192;40.182;44.516;2023-09-08T15:19:51;27.80;58.20
34989;DHT22;21192;40.182;44.516;2023-09-08T15:22:16;27.70;58.20
34989;DHT22;21192;40.182;44.516;2023-09-08T15:24:42;27.70;58.30
34989;DHT22;21192;40.182;44.516;2023-09-08T15:27:08;27.60;58.30